Time;durP1;ratioP1;P1;durP2;ratioP2;P2;SDS_P1;SDS_P2;PMS_P1;PMS_P2;Temp;Humidity;BMP_temperature;BMP_pressure;BME280_temperature;BME280_humidity;BME280_pressure;Samples;Min_cycle;Max_cycle;Signal;HPM_P1;HPM_P2
2023/07/08 00:00:24;;;;;;;5.03;3.80;;;;;;;19.42;58.23;99192.44;5036907;28;20135;-82
2023/07/08 00:02:51;;;;;;;4.75;3.28;;;;;;;19.50;58.01;99198.28;5030268;28;20033;-82
2023/07/08 00:05:18;;;;;;;4.82;3.90;;;;;;;19.36;59.05;99201.78;5035127;28;20137;-82
2023/07/08 00:07:44;;;;;;;4.00;3.60;;;;;;;19.22;59.01;99202.81;5041614;28;20040;-83
2023/07/08 00:10:14;;;;;;;3.80;3.40;;;;;;;19.29;58.61;99198.59;5035276;28;20478;-80
2023/07/08 00:12:41;;;;;;;4.90;3.05;;;;;;;19.20;58.97;99205.78;5034402;28;20848;-81
2023/07/08 00:15:07;;;;;;;3.78;3.13;;;;;;;19.13;59.25;99189.13;5035390;28;20414;-82
2023/07/08 00:17:33;;;;;;;4.93;3.67;;;;;;;19.18;58.96;99191.75;5036986;28;20036;-81
2023/07/08 00:19:58;;;;;;;3.83;3.17;;;;;;;19.09;59.04;99181.91;5034681;28;20033;-82
2023/07/08 00:22:24;;;;;;;3.53;3.22;;;;;;;19.11;59.10;99191.31;5034449;28;20037;-81
2023/07/08 00:24:50;;;;;;;4.13;3.63;;;;;;;19.08;58.94;99186.53;5032005;28;20116;-82
2023/07/08 00:27:16;;;;;;;6.18;3.58;;;;;;;19.05;58.94;99189.00;5033879;28;20533;-80
2023/07/08 00:29:41;;;;;;;5.93;3.67;;;;;;;19.18;58.53;99189.03;5035892;28;20048;-81
2023/07/08 00:32:15;;;;;;;4.78;2.95;;;;;;;19.03;59.26;99183.88;5032007;28;20037;-80
2023/07/08 00:34:41;;;;;;;7.50;4.63;;;;;;;19.02;59.25;99184.19;5032730;28;20053;-83
2023/07/08 00:37:13;;;;;;;4.72;3.80;;;;;;;19.00;58.81;99173.63;5028551;28;20041;-81
2023/07/08 00:39:39;;;;;;;7.35;3.80;;;;;;;19.06;58.86;99177.91;5034906;28;20637;-79
2023/07/08 00:42:24;;;;;;;6.30;3.78;;;;;;;19.12;59.00;99173.19;5037519;28;20118;-80
2023/07/08 00:44:49;;;;;;;4.05;3.33;;;;;;;19.06;58.73;99177.09;5033429;28;20053;-81
2023/07/08 00:47:15;;;;;;;9.25;3.97;;;;;;;19.16;58.63;99179.63;5044885;28;20025;-83
2023/07/08 00:49:55;;;;;;;5.07;3.20;;;;;;;19.11;58.76;99182.41;5043816;28;20028;-81
2023/07/08 00:52:28;;;;;;;11.13;3.88;;;;;;;19.04;58.90;99185.50;5036618;28;20514;-80
2023/07/08 00:54:56;;;;;;;11.93;4.40;;;;;;;19.01;59.43;99183.38;5035268;28;20033;-80
2023/07/08 00:57:25;;;;;;;5.10;3.28;;;;;;;19.07;59.44;99186.78;5035415;28;20025;-79
2023/07/08 00:59:58;;;;;;;5.35;3.55;;;;;;;18.86;59.81;99180.91;5034912;28;20163;-81
2023/07/08 01:02:26;;;;;;;4.85;3.35;;;;;;;18.71;60.55;99186.56;5035765;28;20075;-81
2023/07/08 01:05:04;;;;;;;4.45;3.47;;;;;;;18.76;59.94;99175.66;5032252;28;20475;-79
2023/07/08 01:07:32;;;;;;;6.97;3.90;;;;;;;18.64;60.54;99178.00;5035137;28;20044;-79
2023/07/08 01:10:04;;;;;;;5.47;3.90;;;;;;;18.54;60.39;99175.44;5034962;28;20036;-80
2023/07/08 01:12:34;;;;;;;4.57;3.70;;;;;;;18.49;60.44;99167.41;5032653;28;20107;-79
2023/07/08 01:15:02;;;;;;;4.88;3.90;;;;;;;18.50;60.54;99169.81;5031613;28;20120;-82
2023/07/08 01:17:32;;;;;;;4.10;3.70;;;;;;;18.43;60.49;99163.13;5026789;28;20045;-80
2023/07/08 01:19:57;;;;;;;5.57;3.90;;;;;;;18.56;60.21;99170.56;5029874;28;20029;-78
2023/07/08 01:22:23;;;;;;;5.90;3.50;;;;;;;18.50;60.34;99166.31;5038291;28;20025;-79
2023/07/08 01:24:48;;;;;;;7.32;3.83;;;;;;;18.52;60.78;99153.31;5037546;28;20032;-79
2023/07/08 01:27:16;;;;;;;3.75;3.45;;;;;;;18.50;60.67;99167.09;5031764;28;20087;-79
2023/07/08 01:29:41;;;;;;;5.57;3.53;;;;;;;18.25;61.01;99161.22;5031339;28;20075;-79
2023/07/08 01:32:13;;;;;;;4.95;3.47;;;;;;;18.30;60.55;99158.44;5039593;28;20033;-79
2023/07/08 01:34:39;;;;;;;4.45;4.05;;;;;;;18.40;60.91;99161.00;5030979;28;20025;-79
2023/07/08 01:37:09;;;;;;;15.63;4.55;;;;;;;18.21;60.83;99157.50;5033882;28;20029;-80
2023/07/08 01:39:35;;;;;;;5.55;3.22;;;;;;;18.38;60.86;99161.31;5032989;28;20029;-79
2023/07/08 01:42:00;;;;;;;3.95;3.60;;;;;;;18.24;61.03;99146.91;5035067;28;20178;-79
2023/07/08 01:44:34;;;;;;;4.38;3.65;;;;;;;17.75;63.02;99158.06;5031592;28;20508;-81
2023/07/08 01:47:05;;;;;;;9.10;4.10;;;;;;;18.06;61.66;99147.69;5029073;28;20033;-82
2023/07/08 01:49:33;;;;;;;7.43;3.65;;;;;;;18.22;61.18;99140.97;5030335;28;20120;-81
2023/07/08 01:51:59;;;;;;;3.67;3.38;;;;;;;18.37;61.26;99145.38;5034450;28;20467;-81
2023/07/08 01:54:24;;;;;;;4.97;3.72;;;;;;;18.27;60.97;99132.00;5030689;28;20068;-78
2023/07/08 01:56:56;;;;;;;3.80;3.47;;;;;;;18.14;61.55;99138.13;5025936;28;20386;-80
2023/07/08 01:59:21;;;;;;;9.13;4.15;;;;;;;18.25;60.99;99145.81;5032633;28;20100;-82
2023/07/08 02:01:47;;;;;;;7.32;3.75;;;;;;;18.12;61.69;99130.31;5029970;28;20037;-80
2023/07/08 02:04:13;;;;;;;5.97;3.35;;;;;;;17.99;61.98;99125.63;5033784;28;20057;-80
2023/07/08 02:06:38;;;;;;;14.45;4.38;;;;;;;17.97;61.90;99128.59;5031481;28;20044;-81
2023/07/08 02:09:05;;;;;;;8.85;4.43;;;;;;;18.03;61.90;99134.75;5030651;28;20032;-82
2023/07/08 02:11:30;;;;;;;5.82;4.35;;;;;;;17.90;61.69;99133.56;5033943;28;20052;-80
2023/07/08 02:13:56;;;;;;;4.05;3.15;;;;;;;17.77;62.59;99134.28;5039020;28;20037;-80
2023/07/08 02:16:21;;;;;;;4.45;3.47;;;;;;;17.88;62.01;99130.34;5029181;28;20049;-81
2023/07/08 02:18:46;;;;;;;5.80;4.15;;;;;;;17.87;61.64;99112.53;5034279;28;20053;-81
2023/07/08 02:21:12;;;;;;;6.35;3.58;;;;;;;17.92;62.07;99128.69;5035716;28;20120;-82
2023/07/08 02:23:39;;;;;;;7.65;3.92;;;;;;;17.82;62.60;99128.78;5038823;28;20037;-80
2023/07/08 02:26:04;;;;;;;4.57;3.78;;;;;;;17.71;62.10;99121.91;5034536;28;20033;-81
2023/07/08 02:28:30;;;;;;;7.78;3.83;;;;;;;17.75;62.59;99128.34;5032617;28;20103;-81
2023/07/08 02:30:55;;;;;;;4.70;3.33;;;;;;;17.65;62.28;99123.06;5041483;28;20063;-81
2023/07/08 02:33:32;;;;;;;4.82;4.03;;;;;;;17.67;62.40;99128.97;5041366;28;20034;-79
2023/07/08 02:35:57;;;;;;;6.13;4.10;;;;;;;17.80;61.94;99119.38;5036628;28;20087;-80
2023/07/08 02:38:23;;;;;;;6.88;3.80;;;;;;;17.81;62.33;99129.91;5031826;28;20041;-80
2023/07/08 02:40:48;;;;;;;4.60;3.90;;;;;;;17.84;62.03;99128.53;5038576;28;20045;-79
2023/07/08 02:43:13;;;;;;;4.60;3.63;;;;;;;17.70;62.12;99133.81;5041861;28;20021;-78
2023/07/08 02:45:39;;;;;;;4.57;3.60;;;;;;;17.65;63.05;99135.75;5033045;28;20406;-81
2023/07/08 02:48:05;;;;;;;8.40;5.40;;;;;;;17.51;63.13;99130.25;5033862;28;20032;-79
2023/07/08 02:50:30;;;;;;;4.72;3.55;;;;;;;17.42;63.23;99137.31;5019282;28;20469;-80
2023/07/08 02:52:56;;;;;;;4.30;3.90;;;;;;;17.35;63.71;99130.63;5035805;28;20041;-80
2023/07/08 02:55:21;;;;;;;4.53;3.97;;;;;;;17.31;64.11;99135.00;5036373;28;20021;-80
2023/07/08 02:57:46;;;;;;;4.13;3.45;;;;;;;17.22;64.32;99141.03;5033013;28;20095;-80
2023/07/08 03:00:13;;;;;;;5.43;3.75;;;;;;;17.23;64.25;99144.53;5036011;28;20049;-80
2023/07/08 03:02:38;;;;;;;4.85;3.72;;;;;;;17.32;64.28;99134.72;5035546;28;20390;-79
2023/07/08 03:05:05;;;;;;;6.43;3.47;;;;;;;17.25;64.57;99148.53;5042233;28;20029;-79
2023/07/08 03:07:30;;;;;;;9.90;4.70;;;;;;;17.20;64.68;99145.91;5035830;28;20029;-79
2023/07/08 03:09:55;;;;;;;5.35;3.95;;;;;;;17.20;64.77;99139.69;5035339;28;20047;-80
2023/07/08 03:12:21;;;;;;;4.70;3.58;;;;;;;17.27;64.11;99137.47;5038977;28;20033;-80
2023/07/08 03:14:46;;;;;;;7.97;4.15;;;;;;;17.21;63.98;99138.63;5036568;28;20053;-80
2023/07/08 03:17:11;;;;;;;4.28;3.75;;;;;;;17.12;64.81;99135.69;5025535;28;20033;-79
2023/07/08 03:19:37;;;;;;;5.05;3.60;;;;;;;17.10;64.64;99137.88;5029781;28;20057;-78
2023/07/08 03:22:05;;;;;;;8.68;3.80;;;;;;;17.08;64.66;99142.75;5026382;28;20080;-81
2023/07/08 03:24:31;;;;;;;9.15;4.68;;;;;;;17.10;64.79;99148.66;5027919;28;20030;-81
2023/07/08 03:26:57;;;;;;;7.13;3.65;;;;;;;17.11;64.74;99141.41;5026286;28;20120;-81
2023/07/08 03:29:22;;;;;;;5.40;4.22;;;;;;;17.27;63.76;99152.84;5029378;28;20112;-81
2023/07/08 03:31:48;;;;;;;9.32;4.00;;;;;;;17.30;64.22;99144.97;5032952;28;20120;-81
2023/07/08 03:34:15;;;;;;;5.85;3.78;;;;;;;17.35;64.11;99147.63;5034388;28;20133;-80
2023/07/08 03:36:51;;;;;;;3.97;3.63;;;;;;;17.26;63.94;99149.34;5035485;28;20032;-82
2023/07/08 03:39:22;;;;;;;11.55;4.03;;;;;;;17.21;63.98;99147.50;5028929;28;20088;-82
2023/07/08 03:41:48;;;;;;;4.28;3.88;;;;;;;17.09;64.35;99148.97;5032199;28;20036;-82
2023/07/08 03:44:17;;;;;;;7.10;4.03;;;;;;;17.09;64.55;99154.34;5029207;28;20025;-81
2023/07/08 03:46:44;;;;;;;4.97;4.13;;;;;;;17.03;64.98;99145.53;5031660;28;20037;-81
2023/07/08 03:49:11;;;;;;;6.65;4.05;;;;;;;17.25;64.66;99163.94;5049825;28;20033;-81
2023/07/08 03:51:38;;;;;;;6.57;3.97;;;;;;;17.20;64.50;99166.66;5019120;28;20033;-81
2023/07/08 03:54:05;;;;;;;5.35;3.95;;;;;;;17.28;64.93;99162.56;5026272;28;20144;-80
2023/07/08 03:56:31;;;;;;;4.75;3.55;;;;;;;17.29;64.99;99156.88;5031054;28;20025;-82
2023/07/08 03:58:56;;;;;;;6.10;4.13;;;;;;;17.16;64.50;99160.25;5031858;28;20044;-81
2023/07/08 04:01:25;;;;;;;4.25;3.70;;;;;;;17.20;65.25;99161.28;5030166;28;20026;-81
2023/07/08 04:03:53;;;;;;;8.80;4.78;;;;;;;17.16;64.62;99154.84;5035361;28;20029;-80
2023/07/08 04:06:19;;;;;;;5.72;4.03;;;;;;;17.08;65.28;99155.47;5032377;28;20025;-81
2023/07/08 04:08:44;;;;;;;10.05;4.50;;;;;;;17.15;65.34;99158.63;5024001;28;20102;-80
2023/07/08 04:11:15;;;;;;;4.38;3.97;;;;;;;17.38;65.13;99167.84;5030954;28;20486;-81
2023/07/08 04:13:41;;;;;;;6.88;3.65;;;;;;;17.41;65.24;99157.28;5032251;28;20394;-81
2023/07/08 04:16:08;;;;;;;6.28;4.22;;;;;;;17.44;64.80;99156.72;5031271;28;20025;-82
2023/07/08 04:18:33;;;;;;;6.05;3.92;;;;;;;17.41;64.99;99160.00;5029151;28;20040;-81
2023/07/08 04:20:59;;;;;;;6.90;4.03;;;;;;;17.54;64.63;99151.25;5030611;28;20033;-82
2023/07/08 04:23:25;;;;;;;5.00;3.97;;;;;;;17.56;65.03;99151.75;5027459;28;20033;-80
2023/07/08 04:25:53;;;;;;;6.78;3.78;;;;;;;17.70;64.62;99166.19;5028324;28;20116;-80
2023/07/08 04:28:18;;;;;;;4.40;3.90;;;;;;;17.78;64.37;99165.56;5029760;28;20105;-80
2023/07/08 04:30:44;;;;;;;8.82;4.20;;;;;;;17.86;64.60;99172.25;5034296;28;20141;-79
2023/07/08 04:33:12;;;;;;;7.43;3.70;;;;;;;17.95;64.18;99168.59;5029191;28;20072;-79
2023/07/08 04:35:38;;;;;;;6.03;3.88;;;;;;;17.97;64.37;99171.81;5030990;28;20087;-80
2023/07/08 04:38:09;;;;;;;5.00;4.07;;;;;;;17.99;64.72;99179.66;5029498;28;20030;-80
2023/07/08 04:40:39;;;;;;;5.13;4.10;;;;;;;18.06;66.82;99169.31;5030842;28;20075;-81
2023/07/08 04:43:05;;;;;;;7.68;4.85;;;;;;;17.92;68.09;99180.00;5031720;28;20025;-79
2023/07/08 04:45:30;;;;;;;6.03;4.50;;;;;;;17.95;68.57;99179.41;5031040;28;20031;-82
2023/07/08 04:47:56;;;;;;;6.28;4.53;;;;;;;17.96;68.63;99178.31;5032639;28;20041;-82
2023/07/08 04:50:21;;;;;;;4.90;4.32;;;;;;;18.04;67.63;99181.50;5029142;28;20056;-81
2023/07/08 04:52:46;;;;;;;11.05;4.68;;;;;;;18.01;67.85;99171.25;5025550;28;20061;-81
2023/07/08 04:55:13;;;;;;;8.05;5.07;;;;;;;18.11;67.60;99171.91;5028189;28;20037;-81
2023/07/08 04:57:38;;;;;;;8.57;4.65;;;;;;;18.24;68.10;99182.03;5031168;28;20025;-80
2023/07/08 05:00:08;;;;;;;5.60;4.90;;;;;;;18.36;67.71;99173.50;5030768;28;20083;-81
2023/07/08 05:02:33;;;;;;;6.07;4.22;;;;;;;18.42;68.01;99175.03;5032700;28;20075;-81
2023/07/08 05:04:59;;;;;;;9.07;5.15;;;;;;;18.62;67.10;99180.19;5033471;28;20036;-81
2023/07/08 05:07:24;;;;;;;7.35;4.50;;;;;;;18.69;66.58;99177.94;5036676;28;20036;-81
2023/07/08 05:09:49;;;;;;;5.97;4.43;;;;;;;18.68;65.93;99173.59;5029129;28;20135;-81
2023/07/08 05:12:15;;;;;;;7.00;4.20;;;;;;;18.81;67.44;99182.88;5026565;28;20482;-81
2023/07/08 05:14:40;;;;;;;5.05;4.30;;;;;;;18.87;67.19;99168.19;5031601;28;20040;-81
2023/07/08 05:17:06;;;;;;;6.43;4.85;;;;;;;18.80;68.02;99176.69;4997770;28;20033;-81
2023/07/08 05:19:31;;;;;;;8.63;4.68;;;;;;;18.84;67.10;99177.69;5033141;28;20661;-80
2023/07/08 05:21:56;;;;;;;6.97;5.10;;;;;;;18.71;67.24;99170.31;5032048;28;20061;-81
2023/07/08 05:24:22;;;;;;;5.97;4.50;;;;;;;18.67;67.81;99175.50;5041244;28;20379;-81
2023/07/08 05:26:47;;;;;;;11.20;5.30;;;;;;;18.63;67.22;99176.41;5024897;28;20033;-80
2023/07/08 05:29:12;;;;;;;6.22;5.63;;;;;;;18.62;68.68;99174.78;5025814;28;20052;-81
2023/07/08 05:31:38;;;;;;;10.55;5.90;;;;;;;18.55;68.52;99171.63;5030478;28;20060;-80
2023/07/08 05:34:03;;;;;;;6.95;5.07;;;;;;;18.57;68.26;99166.75;5030734;28;20032;-81
2023/07/08 05:36:28;;;;;;;7.93;6.13;;;;;;;18.37;68.40;99169.72;5036354;28;20034;-80
2023/07/08 05:38:54;;;;;;;11.00;5.88;;;;;;;18.34;67.64;99173.00;5032779;28;20075;-80
2023/07/08 05:41:19;;;;;;;9.57;5.68;;;;;;;18.36;67.38;99173.50;5026887;28;20159;-80
2023/07/08 05:43:44;;;;;;;8.63;6.00;;;;;;;18.40;68.29;99174.53;5029601;28;20406;-80
2023/07/08 05:46:10;;;;;;;10.77;5.82;;;;;;;18.37;68.35;99175.13;5031972;28;20041;-80
2023/07/08 05:48:36;;;;;;;9.27;5.95;;;;;;;18.81;67.42;99175.56;5032677;28;20041;-79
2023/07/08 05:51:02;;;;;;;9.95;5.88;;;;;;;18.68;68.12;99171.72;5039104;28;20033;-79
2023/07/08 05:53:27;;;;;;;9.02;5.18;;;;;;;18.37;68.06;99158.91;5041212;28;20078;-79
2023/07/08 05:55:54;;;;;;;8.80;6.15;;;;;;;18.49;68.98;99168.22;5031845;28;20060;-79
2023/07/08 05:58:19;;;;;;;9.68;6.25;;;;;;;18.26;69.48;99168.25;5027952;28;20079;-78
2023/07/08 06:00:45;;;;;;;5.35;4.53;;;;;;;18.40;68.58;99166.41;5032900;28;20147;-80
2023/07/08 06:03:11;;;;;;;7.70;5.18;;;;;;;18.71;68.03;99170.31;5030565;28;20037;-81
2023/07/08 06:05:37;;;;;;;6.63;4.88;;;;;;;19.09;65.65;99169.16;5028622;28;20029;-82
2023/07/08 06:08:02;;;;;;;7.47;5.97;;;;;;;18.87;66.98;99173.59;5035401;28;20044;-81
2023/07/08 06:10:28;;;;;;;11.88;5.82;;;;;;;18.81;68.43;99159.34;5032366;28;20034;-82
2023/07/08 06:12:53;;;;;;;10.95;5.53;;;;;;;18.76;68.55;99172.97;5042396;28;20491;-82
2023/07/08 06:15:19;;;;;;;8.80;5.00;;;;;;;18.82;69.88;99179.09;5034027;28;20393;-82
2023/07/08 06:17:44;;;;;;;7.60;5.18;;;;;;;18.78;70.56;99178.88;5031091;28;20049;-81
2023/07/08 06:20:09;;;;;;;7.60;6.03;;;;;;;18.79;70.68;99171.56;5033637;28;22067;-81
2023/07/08 06:22:35;;;;;;;8.75;5.97;;;;;;;18.99;70.41;99176.66;5031878;28;20030;-81
2023/07/08 06:25:00;;;;;;;8.15;5.22;;;;;;;18.80;69.32;99175.88;5029171;28;20514;-81
2023/07/08 06:27:26;;;;;;;6.25;4.30;;;;;;;19.07;67.47;99163.25;5030311;28;20389;-81
2023/07/08 06:29:51;;;;;;;8.60;5.40;;;;;;;19.15;68.99;99172.59;5045310;28;20053;-82
2023/07/08 06:32:16;;;;;;;8.70;5.43;;;;;;;19.02;69.04;99167.97;5027624;28;20065;-82
2023/07/08 06:34:42;;;;;;;8.02;4.57;;;;;;;19.54;64.70;99162.19;5046363;28;20033;-82
2023/07/08 06:37:07;;;;;;;6.43;5.03;;;;;;;19.52;66.90;99169.00;5046269;28;20034;-81
2023/07/08 06:39:33;;;;;;;8.45;4.68;;;;;;;19.36;66.16;99168.47;5027990;28;20026;-80
2023/07/08 06:41:58;;;;;;;9.65;5.30;;;;;;;19.45;66.34;99169.41;5026230;28;20041;-80
2023/07/08 06:44:25;;;;;;;5.15;4.63;;;;;;;19.51;66.67;99173.63;5029089;28;20048;-80
2023/07/08 06:46:50;;;;;;;10.50;4.63;;;;;;;20.07;63.36;99171.44;5028634;28;20032;-78
2023/07/08 06:49:17;;;;;;;8.80;4.82;;;;;;;20.32;62.03;99159.28;5028156;28;20033;-78
2023/07/08 06:51:42;;;;;;;6.22;4.55;;;;;;;20.53;61.36;99167.78;5027947;28;20052;-79
2023/07/08 06:54:11;;;;;;;8.23;4.45;;;;;;;20.58;61.17;99175.78;5032010;28;20034;-78
2023/07/08 06:56:40;;;;;;;8.27;5.40;;;;;;;19.94;63.92;99177.66;5026622;28;20115;-78
2023/07/08 06:59:08;;;;;;;11.82;4.63;;;;;;;20.10;63.31;99170.84;5027015;28;20059;-79
2023/07/08 07:01:34;;;;;;;8.43;5.72;;;;;;;20.41;66.35;99172.94;5048321;28;20025;-79
2023/07/08 07:04:00;;;;;;;7.32;4.72;;;;;;;20.64;61.09;99172.66;5040073;28;20103;-79
2023/07/08 07:06:25;;;;;;;8.40;4.45;;;;;;;20.73;62.29;99181.69;5041073;28;20029;-81
2023/07/08 07:08:50;;;;;;;10.10;5.43;;;;;;;20.62;63.91;99176.81;5031133;28;20112;-78
2023/07/08 07:11:16;;;;;;;8.15;4.28;;;;;;;20.79;61.22;99176.97;5032858;28;20052;-78
2023/07/08 07:13:41;;;;;;;6.00;4.13;;;;;;;20.86;61.17;99177.31;5028685;28;20477;-79
2023/07/08 07:16:07;;;;;;;7.93;4.63;;;;;;;20.99;60.82;99173.75;5033466;28;20044;-79
2023/07/08 07:18:32;;;;;;;5.47;3.67;;;;;;;20.99;60.72;99160.16;5044145;28;20044;-79
2023/07/08 07:20:58;;;;;;;6.47;4.13;;;;;;;21.18;60.04;99168.16;5034947;28;20488;-79
2023/07/08 07:23:24;;;;;;;5.55;3.90;;;;;;;21.14;60.34;99169.91;5030231;28;20031;-79
2023/07/08 07:25:50;;;;;;;4.28;3.72;;;;;;;21.32;59.82;99168.88;5029679;28;20112;-80
2023/07/08 07:28:16;;;;;;;4.72;4.25;;;;;;;21.17;61.59;99164.66;5027158;28;20454;-79
2023/07/08 07:30:43;;;;;;;5.82;4.65;;;;;;;21.18;61.60;99174.41;5032176;28;20037;-79
2023/07/08 07:33:09;;;;;;;4.32;3.92;;;;;;;21.43;60.19;99175.66;5031902;28;20740;-79
2023/07/08 07:35:34;;;;;;;5.15;4.38;;;;;;;21.61;59.64;99177.34;5032641;28;20033;-79
2023/07/08 07:38:00;;;;;;;6.78;4.85;;;;;;;21.57;59.92;99174.47;5030274;28;20545;-79
2023/07/08 07:40:25;;;;;;;7.85;3.83;;;;;;;21.37;62.46;99166.03;5031447;28;20047;-80
2023/07/08 07:42:50;;;;;;;4.75;4.18;;;;;;;21.80;58.60;99169.00;5029652;28;20435;-79
2023/07/08 07:45:16;;;;;;;5.57;3.95;;;;;;;21.81;58.63;99165.94;5043767;28;20033;-79
2023/07/08 07:47:41;;;;;;;4.07;3.67;;;;;;;21.93;57.90;99162.66;5030834;28;20406;-80
2023/07/08 07:50:08;;;;;;;5.88;4.10;;;;;;;21.93;58.01;99173.53;5031668;28;20037;-79
2023/07/08 07:52:34;;;;;;;6.43;4.10;;;;;;;21.85;59.28;99169.66;5031383;28;20029;-79
2023/07/08 07:54:59;;;;;;;7.95;4.68;;;;;;;21.94;56.65;99158.81;5034047;28;20052;-79
2023/07/08 07:57:25;;;;;;;7.78;4.72;;;;;;;21.83;58.79;99163.75;5017836;28;20530;-79
2023/07/08 07:59:51;;;;;;;11.60;4.70;;;;;;;21.85;56.47;99166.13;5031889;28;20033;-81
2023/07/08 08:02:17;;;;;;;8.50;4.47;;;;;;;21.91;55.90;99165.69;5031467;28;20025;-80
2023/07/08 08:04:42;;;;;;;7.25;4.55;;;;;;;21.92;56.63;99171.94;5033907;28;20056;-80
2023/07/08 08:07:08;;;;;;;4.75;4.25;;;;;;;21.93;56.43;99176.25;5033731;28;20405;-80
2023/07/08 08:09:33;;;;;;;10.15;4.88;;;;;;;22.02;55.79;99169.72;5035247;28;20082;-81
2023/07/08 08:12:02;;;;;;;6.03;5.15;;;;;;;21.99;56.71;99177.72;5029543;28;20088;-79
2023/07/08 08:14:27;;;;;;;6.30;4.32;;;;;;;22.09;56.43;99174.69;5032270;28;20029;-80
2023/07/08 08:16:52;;;;;;;4.88;4.38;;;;;;;21.95;57.92;99182.19;5031731;28;20445;-80
2023/07/08 08:19:18;;;;;;;5.28;4.70;;;;;;;22.04;55.44;99167.47;5047141;28;20390;-80
2023/07/08 08:21:43;;;;;;;8.00;4.35;;;;;;;22.28;54.22;99167.06;5033290;28;20138;-80
2023/07/08 08:24:08;;;;;;;6.45;4.45;;;;;;;22.14;56.23;99166.41;5031731;28;20037;-82
2023/07/08 08:26:34;;;;;;;8.25;4.72;;;;;;;22.21;56.74;99164.03;5023339;28;20122;-78
2023/07/08 08:28:59;;;;;;;7.15;5.03;;;;;;;22.55;54.89;99166.78;5020528;28;20029;-81
2023/07/08 08:31:24;;;;;;;6.95;4.60;;;;;;;22.57;57.13;99166.47;5044445;28;20124;-79
2023/07/08 08:33:53;;;;;;;8.88;4.78;;;;;;;23.01;54.43;99171.63;5028414;28;20041;-82
2023/07/08 08:36:18;;;;;;;6.65;4.63;;;;;;;22.98;58.55;99181.25;5029321;28;20033;-80
2023/07/08 08:38:44;;;;;;;12.40;4.53;;;;;;;23.22;57.27;99171.78;5031192;28;20033;-81
2023/07/08 08:41:14;;;;;;;6.85;4.22;;;;;;;23.45;56.86;99175.91;5033264;28;20124;-82
2023/07/08 08:43:41;;;;;;;16.23;4.88;;;;;;;23.56;54.60;99172.53;5031112;28;20025;-81
2023/07/08 08:46:23;;;;;;;6.93;4.90;;;;;;;23.61;57.89;99182.44;5031466;28;20033;-79
2023/07/08 08:49:07;;;;;;;10.35;5.30;;;;;;;23.76;56.90;99179.19;5024383;28;20124;-80
2023/07/08 08:51:33;;;;;;;6.38;4.55;;;;;;;23.92;54.76;99182.94;5023374;28;20111;-79
2023/07/08 08:53:59;;;;;;;27.90;5.72;;;;;;;23.89;55.69;99177.38;5019092;28;20727;-81
2023/07/08 08:56:30;;;;;;;13.02;5.53;;;;;;;23.99;54.69;99180.53;5025569;28;20029;-79
2023/07/08 08:59:17;;;;;;;8.65;5.20;;;;;;;24.03;54.23;99177.91;5025512;28;20072;-79
2023/07/08 09:01:45;;;;;;;5.50;4.55;;;;;;;23.84;56.19;99168.25;5025924;28;20140;-78
2023/07/08 09:04:17;;;;;;;7.88;5.15;;;;;;;23.95;55.56;99176.84;5030026;28;20057;-78
2023/07/08 09:06:44;;;;;;;9.20;5.03;;;;;;;24.39;54.51;99176.31;5025668;28;20021;-79
2023/07/08 09:09:18;;;;;;;6.60;4.78;;;;;;;24.52;54.34;99174.47;5024778;28;20021;-78
2023/07/08 09:12:09;;;;;;;20.92;5.50;;;;;;;24.54;55.78;99181.19;5027258;28;20061;-78
2023/07/08 09:14:37;;;;;;;6.88;4.50;;;;;;;24.60;56.69;99181.78;5022086;28;20478;-78
2023/07/08 09:17:33;;;;;;;6.15;4.63;;;;;;;24.60;55.67;99179.06;5027353;28;20032;-78
2023/07/08 09:20:22;;;;;;;8.52;5.25;;;;;;;24.58;57.19;99178.59;5023464;28;20082;-79
2023/07/08 09:23:03;;;;;;;10.07;6.07;;;;;;;24.63;55.50;99181.13;5024860;28;20063;-79
2023/07/08 09:25:35;;;;;;;7.70;4.18;;;;;;;24.53;55.88;99178.78;5019745;28;20029;-79
2023/07/08 09:28:01;;;;;;;6.13;5.00;;;;;;;24.47;57.21;99174.66;5018033;28;20061;-79
2023/07/08 09:30:28;;;;;;;9.10;5.00;;;;;;;24.51;56.54;99170.94;5025173;28;20053;-78
2023/07/08 09:32:54;;;;;;;5.55;4.97;;;;;;;24.48;59.63;99174.34;5028964;28;20052;-78
2023/07/08 09:35:26;;;;;;;5.82;5.15;;;;;;;24.50;56.61;99180.25;5024133;28;20100;-78
2023/07/08 09:37:52;;;;;;;10.13;5.32;;;;;;;24.55;55.94;99177.31;5021865;28;20080;-79
2023/07/08 09:40:31;;;;;;;12.32;5.70;;;;;;;24.56;55.43;99178.94;5027667;28;20451;-79
2023/07/08 09:43:15;;;;;;;8.75;5.03;;;;;;;24.59;58.99;99175.53;5022455;28;20014;-78
2023/07/08 09:45:47;;;;;;;6.05;5.00;;;;;;;24.80;55.83;99170.09;5022560;28;20171;-78
2023/07/08 09:48:23;;;;;;;6.57;5.55;;;;;;;24.98;58.22;99174.28;5022899;28;20121;-78
2023/07/08 09:50:51;;;;;;;7.57;4.93;;;;;;;25.15;54.93;99168.66;5040709;28;20033;-78
2023/07/08 09:53:17;;;;;;;6.55;5.65;;;;;;;25.61;54.54;99174.97;5024305;28;20474;-78
2023/07/08 09:55:43;;;;;;;8.30;5.35;;;;;;;25.50;53.65;99165.59;5026587;28;20033;-78
2023/07/08 09:58:18;;;;;;;6.25;4.72;;;;;;;25.54;51.52;99174.72;5027410;28;20088;-78
2023/07/08 10:00:51;;;;;;;6.33;5.27;;;;;;;25.61;52.78;99167.56;5026834;28;20033;-78
2023/07/08 10:03:28;;;;;;;7.40;5.20;;;;;;;25.75;51.29;99169.97;5036956;28;20275;-78
2023/07/08 10:05:57;;;;;;;5.72;5.22;;;;;;;26.10;51.36;99164.91;5024818;28;20033;-78
2023/07/08 10:08:27;;;;;;;6.07;4.90;;;;;;;26.20;50.30;99170.69;5023603;28;20487;-78
2023/07/08 10:11:22;;;;;;;11.35;5.97;;;;;;;26.34;50.07;99165.66;5029383;28;20037;-78
2023/07/08 10:13:51;;;;;;;9.52;5.00;;;;;;;26.19;50.21;99165.59;5021906;28;20120;-78
2023/07/08 10:16:33;;;;;;;5.53;5.03;;;;;;;26.33;50.67;99158.59;5021041;28;20022;-78
2023/07/08 10:18:59;;;;;;;9.13;5.05;;;;;;;26.80;51.01;99160.81;5022380;28;20153;-78
2023/07/08 10:21:27;;;;;;;6.93;4.80;;;;;;;27.05;49.08;99146.66;5024338;28;20112;-78
2023/07/08 10:24:14;;;;;;;5.93;4.75;;;;;;;27.22;47.36;99156.50;5021367;28;20034;-78
2023/07/08 10:26:40;;;;;;;8.45;6.05;;;;;;;26.99;47.31;99147.25;5016669;28;20088;-79
2023/07/08 10:29:39;;;;;;;7.40;4.93;;;;;;;27.38;47.60;99149.94;5020444;28;20029;-79
2023/07/08 10:32:14;;;;;;;6.85;5.20;;;;;;;27.56;46.97;99150.41;5031175;28;20029;-79
2023/07/08 10:34:50;;;;;;;5.20;4.65;;;;;;;27.44;47.13;99145.78;5033878;28;20025;-79
2023/07/08 10:37:28;;;;;;;7.72;5.00;;;;;;;27.83;46.49;99149.53;5030179;28;20026;-79
2023/07/08 10:39:59;;;;;;;7.80;5.30;;;;;;;27.66;45.90;99144.38;5033439;28;20211;-78
2023/07/08 10:42:30;;;;;;;6.00;4.60;;;;;;;27.27;45.84;99143.34;5032901;28;20025;-78
2023/07/08 10:45:14;;;;;;;6.82;5.05;;;;;;;27.90;46.89;99143.41;5027443;28;20022;-78
2023/07/08 10:47:47;;;;;;;7.97;5.60;;;;;;;28.13;46.15;99127.94;5031748;28;20048;-78
2023/07/08 10:50:30;;;;;;;7.45;5.65;;;;;;;28.24;44.46;99139.16;5034233;28;20025;-78
2023/07/08 10:53:05;;;;;;;9.25;4.97;;;;;;;28.50;43.09;99137.41;5029420;28;20064;-79
2023/07/08 10:55:36;;;;;;;6.30;5.00;;;;;;;28.69;42.20;99136.63;5031535;28;20022;-78
2023/07/08 10:58:18;;;;;;;7.53;5.68;;;;;;;28.73;42.63;99134.75;5032987;28;20029;-78
2023/07/08 11:01:00;;;;;;;9.65;5.40;;;;;;;28.90;42.48;99137.06;5038691;28;20057;-78
2023/07/08 11:04:16;;;;;;;11.40;5.05;;;;;;;28.95;43.96;99128.53;5032686;28;20394;-78
2023/07/08 11:06:50;;;;;;;10.33;5.23;;;;;;;29.19;42.16;99132.94;5024971;28;20506;-78
2023/07/08 11:09:27;;;;;;;13.27;5.43;;;;;;;28.86;42.62;99116.97;5029377;28;20063;-78
2023/07/08 11:11:52;;;;;;;5.10;4.68;;;;;;;28.92;37.80;99124.56;5026866;28;20021;-77
2023/07/08 11:14:27;;;;;;;7.20;5.43;;;;;;;29.25;38.89;99129.53;5028102;28;20056;-78
2023/07/08 11:17:22;;;;;;;7.00;5.20;;;;;;;29.48;39.12;99127.63;5027941;28;20029;-78
2023/07/08 11:19:57;;;;;;;6.40;5.25;;;;;;;29.66;39.04;99133.41;5031709;28;20052;-78
2023/07/08 11:22:23;;;;;;;5.38;4.88;;;;;;;29.83;39.25;99126.63;5028764;28;20040;-77
2023/07/08 11:24:51;;;;;;;5.90;5.13;;;;;;;30.05;39.80;99126.63;5027367;28;20041;-78
2023/07/08 11:27:30;;;;;;;6.05;5.00;;;;;;;30.12;39.11;99114.91;5029603;28;20098;-77
2023/07/08 11:30:07;;;;;;;5.95;5.35;;;;;;;29.97;37.32;99113.09;5031236;28;20029;-78
2023/07/08 11:32:35;;;;;;;7.25;4.88;;;;;;;30.05;37.75;99115.59;5030375;28;20395;-78
2023/07/08 11:35:04;;;;;;;8.85;5.68;;;;;;;30.53;36.33;99118.66;5032789;28;20057;-78
2023/07/08 11:37:30;;;;;;;6.45;5.38;;;;;;;30.39;38.21;99113.75;5025940;28;20083;-77